Time;durP1;ratioP1;P1;durP2;ratioP2;P2;SDS_P1;SDS_P2;PMS_P1;PMS_P2;Temp;Humidity;BMP_temperature;BMP_pressure;BME280_temperature;BME280_humidity;BME280_pressure;Samples;Min_cycle;Max_cycle;Signal;HPM_P1;HPM_P2
2021/08/25 00:01:14;;;;;;;109.85;77.15;;;;;;;16.04;56.80;93455.44;5049616;28;20132;-47
2021/08/25 00:03:39;;;;;;;94.57;71.57;;;;;;;16.04;56.96;93456.16;5049521;28;20033;-45
2021/08/25 00:06:05;;;;;;;102.15;65.07;;;;;;;15.98;57.33;93458.50;5049465;28;20530;-47
2021/08/25 00:08:30;;;;;;;108.90;75.03;;;;;;;15.96;57.39;93457.63;5049465;28;20044;-46
2021/08/25 00:10:56;;;;;;;107.50;79.68;;;;;;;15.86;57.02;93458.34;5049167;28;20665;-46
2021/08/25 00:13:21;;;;;;;98.80;59.40;;;;;;;15.89;57.62;93453.66;5049163;28;20025;-48
2021/08/25 00:15:47;;;;;;;102.25;63.15;;;;;;;15.87;57.10;93454.22;5049280;28;20020;-47
2021/08/25 00:18:13;;;;;;;91.00;54.80;;;;;;;15.87;57.38;93459.78;5049208;28;20116;-44
2021/08/25 00:20:39;;;;;;;99.25;66.28;;;;;;;15.96;57.04;93447.19;5048998;28;20021;-48
2021/08/25 00:23:05;;;;;;;81.70;58.47;;;;;;;15.79;57.33;93452.88;5049259;28;20463;-44
2021/08/25 00:25:31;;;;;;;100.68;62.92;;;;;;;15.73;57.42;93450.41;5048986;28;20025;-46
2021/08/25 00:27:57;;;;;;;92.03;67.38;;;;;;;15.70;57.97;93436.91;5049215;28;20029;-46
2021/08/25 00:30:22;;;;;;;85.80;53.10;;;;;;;15.73;57.52;93453.19;5049013;28;20418;-46
2021/08/25 00:32:48;;;;;;;103.75;66.32;;;;;;;15.72;57.64;93454.47;5049173;28;20021;-44
2021/08/25 00:35:14;;;;;;;86.45;66.13;;;;;;;15.57;57.95;93448.47;5064690;28;20021;-45
2021/08/25 00:37:40;;;;;;;119.32;58.17;;;;;;;15.51;58.30;93445.94;5071897;28;20050;-45
2021/08/25 00:40:06;;;;;;;78.43;55.47;;;;;;;15.30;58.40;93422.69;5072494;28;20041;-46
2021/08/25 00:42:31;;;;;;;76.22;47.17;;;;;;;15.43;58.24;93436.22;5072832;28;20016;-47
2021/08/25 00:45:02;;;;;;;75.85;49.25;;;;;;;15.39;58.65;93427.56;5072459;28;20118;-44
2021/08/25 00:47:30;;;;;;;70.78;50.03;;;;;;;15.40;58.45;93429.75;5071490;28;20028;-44
2021/08/25 00:49:56;;;;;;;65.97;43.83;;;;;;;15.43;58.11;93430.66;5072422;28;20025;-45
2021/08/25 00:52:21;;;;;;;92.68;53.65;;;;;;;15.41;58.44;93430.50;5065495;28;20024;-45
2021/08/25 00:54:46;;;;;;;85.47;51.90;;;;;;;15.42;58.50;93429.19;5052614;28;20496;-48
2021/08/25 00:57:12;;;;;;;61.90;42.67;;;;;;;15.32;58.73;93433.97;5052353;28;20505;-45
2021/08/25 00:59:37;;;;;;;73.57;48.08;;;;;;;15.26;58.98;93431.47;5052397;28;20017;-47
2021/08/25 01:02:44;;;;;;;81.65;48.70;;;;;;;15.17;59.07;93435.69;5050916;28;20549;-46
2021/08/25 01:05:10;;;;;;;63.70;43.88;;;;;;;15.02;59.45;93435.91;5052005;28;20032;-47
2021/08/25 01:07:39;;;;;;;72.07;43.85;;;;;;;14.98;59.58;93443.22;5052288;28;20017;-45
2021/08/25 01:10:40;;;;;;;;;;;;;;;15.03;59.46;93442.19;5052791;28;20100;-45
2021/08/25 01:13:08;;;;;;;55.17;44.45;;;;;;;15.01;59.30;93437.22;5049395;28;19913;-45
2021/08/25 01:15:40;;;;;;;73.00;47.67;;;;;;;14.97;59.81;93428.56;5051382;28;20094;-46
2021/08/25 01:18:10;;;;;;;68.10;39.40;;;;;;;15.11;59.46;93434.50;5052100;28;20044;-46
2021/08/25 01:20:36;;;;;;;67.95;43.55;;;;;;;14.92;59.56;93420.50;5051993;28;20115;-45
2021/08/25 01:23:01;;;;;;;59.80;44.30;;;;;;;14.90;59.38;93429.41;5051768;28;20074;-45
2021/08/25 01:25:28;;;;;;;53.85;46.08;;;;;;;14.86;59.45;93420.75;5051980;28;20021;-46
2021/08/25 01:27:58;;;;;;;63.78;50.72;;;;;;;14.89;59.54;93418.88;5050462;28;20029;-45
2021/08/25 01:30:27;;;;;;;64.10;38.28;;;;;;;14.84;59.72;93414.31;5051882;28;20416;-46
2021/08/25 01:32:53;;;;;;;53.45;37.95;;;;;;;14.78;60.06;93411.81;5051987;28;20089;-47
2021/08/25 01:35:18;;;;;;;72.93;43.50;;;;;;;14.83;60.29;93404.50;5067655;28;20452;-45
2021/08/25 01:37:44;;;;;;;48.58;35.30;;;;;;;14.77;60.31;93404.75;5071109;28;20024;-47
2021/08/25 01:40:10;;;;;;;50.97;36.50;;;;;;;14.75;60.42;93406.66;5071179;28;20043;-45
2021/08/25 01:42:36;;;;;;;45.35;34.00;;;;;;;14.79;60.25;93407.69;5071653;28;20025;-45
2021/08/25 01:45:02;;;;;;;42.15;33.63;;;;;;;14.82;59.97;93412.09;5071647;28;20551;-46
2021/08/25 01:47:27;;;;;;;64.75;34.72;;;;;;;14.73;59.92;93398.16;5071526;28;20024;-45
2021/08/25 01:49:53;;;;;;;69.20;33.85;;;;;;;14.75;60.03;93406.66;5053649;28;20533;-45
2021/08/25 01:52:19;;;;;;;52.22;34.00;;;;;;;14.70;60.28;93396.53;5051500;28;20029;-45
2021/08/25 01:54:46;;;;;;;55.50;34.75;;;;;;;14.64;59.68;93401.63;5051254;28;20588;-45
2021/08/25 01:57:11;;;;;;;52.30;32.65;;;;;;;14.47;60.09;93382.94;5051460;28;20067;-46
2021/08/25 01:59:37;;;;;;;57.88;39.47;;;;;;;14.52;60.38;93395.84;5051430;28;20513;-48
2021/08/25 02:02:03;;;;;;;46.85;30.70;;;;;;;14.43;60.73;93394.50;5051254;28;20052;-45
2021/08/25 02:04:28;;;;;;;67.50;39.88;;;;;;;14.22;60.87;93374.00;5050908;28;20029;-48
2021/08/25 02:06:54;;;;;;;74.78;47.80;;;;;;;14.34;60.83;93391.63;5049988;28;20063;-46
2021/08/25 02:09:20;;;;;;;57.30;34.05;;;;;;;14.23;61.07;93389.34;5050786;28;20464;-47
2021/08/25 02:11:46;;;;;;;58.25;30.83;;;;;;;14.12;61.47;93378.75;5051063;28;20096;-47
2021/08/25 02:14:11;;;;;;;53.60;32.50;;;;;;;14.09;61.92;93369.53;5051150;28;20558;-48
2021/08/25 02:16:37;;;;;;;46.60;34.20;;;;;;;14.12;61.89;93375.97;5050702;28;20021;-46
2021/08/25 02:19:02;;;;;;;49.33;34.42;;;;;;;14.15;61.74;93372.78;5050819;28;20115;-45
2021/08/25 02:21:28;;;;;;;38.53;29.08;;;;;;;14.16;61.58;93367.97;5050637;28;20025;-47
2021/08/25 02:23:53;;;;;;;74.38;46.53;;;;;;;13.83;61.69;93375.00;5050845;28;20021;-46
2021/08/25 02:26:19;;;;;;;64.45;43.22;;;;;;;13.50;63.30;93382.75;5050542;28;20411;-47
2021/08/25 02:28:49;;;;;;;55.85;38.85;;;;;;;13.44;63.93;93390.56;5050467;28;20033;-46
2021/08/25 02:31:15;;;;;;;50.45;34.05;;;;;;;13.47;63.86;93397.78;5050896;28;20028;-46
2021/08/25 02:33:41;;;;;;;52.28;33.78;;;;;;;13.56;63.72;93397.84;5053081;28;20421;-45
2021/08/25 02:36:07;;;;;;;52.80;36.20;;;;;;;13.61;63.57;93398.91;5070309;28;20540;-47
2021/08/25 02:38:33;;;;;;;41.97;24.85;;;;;;;13.60;62.82;93395.41;5070037;28;20036;-46
2021/08/25 02:40:59;;;;;;;37.95;25.45;;;;;;;13.54;63.30;93394.16;5070030;28;20123;-46
2021/08/25 02:43:25;;;;;;;46.10;30.80;;;;;;;13.55;63.80;93393.63;5070543;28;20095;-44
2021/08/25 02:45:50;;;;;;;49.83;30.25;;;;;;;13.74;63.08;93389.53;5055042;28;20496;-45
2021/08/25 02:48:15;;;;;;;44.95;30.40;;;;;;;13.95;62.09;93412.06;5050361;28;20070;-45
2021/08/25 02:50:41;;;;;;;35.72;27.25;;;;;;;13.95;61.52;93407.25;5050099;28;20028;-45
2021/08/25 02:53:07;;;;;;;58.58;37.45;;;;;;;13.97;61.81;93407.41;5050210;28;20460;-46
2021/08/25 02:55:32;;;;;;;45.15;32.53;;;;;;;13.98;61.94;93403.34;5050325;28;20505;-45
2021/08/25 02:57:58;;;;;;;63.95;31.67;;;;;;;14.03;61.96;93409.97;5050159;28;20017;-46
2021/08/25 03:00:24;;;;;;;40.72;34.45;;;;;;;14.08;61.96;93408.94;5049895;28;20025;-46
2021/08/25 03:02:50;;;;;;;54.35;27.88;;;;;;;14.08;62.61;93412.47;5049592;28;20017;-45
2021/08/25 03:05:15;;;;;;;48.28;31.98;;;;;;;14.10;62.54;93409.84;5049852;28;20021;-44
2021/08/25 03:07:41;;;;;;;46.15;31.63;;;;;;;14.15;61.56;93413.69;5049813;28;20021;-44
2021/08/25 03:10:07;;;;;;;63.55;32.47;;;;;;;14.18;61.71;93412.56;5050015;28;20028;-46
2021/08/25 03:12:32;;;;;;;50.25;34.95;;;;;;;14.16;62.01;93415.88;5049695;28;20162;-45
2021/08/25 03:14:58;;;;;;;41.85;29.17;;;;;;;14.26;62.32;93424.31;5049698;28;20124;-46
2021/08/25 03:17:23;;;;;;;45.92;31.45;;;;;;;14.36;62.35;93427.91;5049692;28;20024;-46
2021/08/25 03:19:49;;;;;;;45.60;26.15;;;;;;;14.40;61.90;93434.50;5049596;28;20021;-45
2021/08/25 03:22:14;;;;;;;36.28;25.13;;;;;;;14.33;62.19;93427.03;5049633;28;20095;-47
2021/08/25 03:24:40;;;;;;;37.90;28.92;;;;;;;14.31;62.51;93426.84;5049935;28;20021;-43
2021/08/25 03:27:05;;;;;;;50.42;27.15;;;;;;;14.35;62.16;93423.66;5049630;28;20021;-47
2021/08/25 03:29:31;;;;;;;42.03;22.27;;;;;;;14.41;62.11;93427.66;5049665;28;20025;-44
2021/08/25 03:31:56;;;;;;;39.72;26.52;;;;;;;14.54;61.90;93425.84;5049771;28;20489;-45
2021/08/25 03:34:21;;;;;;;50.10;35.35;;;;;;;14.64;61.84;93429.41;5057923;28;20032;-45
2021/08/25 03:36:47;;;;;;;76.50;42.67;;;;;;;14.66;61.47;93430.28;5069126;28;20059;-45
2021/08/25 03:39:12;;;;;;;49.72;31.83;;;;;;;14.61;61.61;93425.75;5069522;28;20017;-48
2021/08/25 03:41:38;;;;;;;49.42;29.45;;;;;;;14.58;61.44;93420.59;5057744;28;20025;-45
2021/08/25 03:44:04;;;;;;;58.45;36.03;;;;;;;14.60;61.75;93424.25;5063714;28;20086;-46
2021/08/25 03:46:29;;;;;;;55.95;33.63;;;;;;;14.62;61.07;93420.94;5050578;28;20029;-45
2021/08/25 03:48:54;;;;;;;49.13;32.38;;;;;;;14.68;60.78;93424.19;5046265;28;20021;-44
2021/08/25 03:51:21;;;;;;;37.70;28.20;;;;;;;14.70;60.57;93421.56;5062491;28;20027;-44
2021/08/25 03:53:46;;;;;;;33.45;27.20;;;;;;;14.72;61.23;93421.72;5064142;28;20033;-44
2021/08/25 03:56:12;;;;;;;38.92;28.27;;;;;;;14.70;60.37;93413.97;5065822;28;20033;-45
2021/08/25 03:58:37;;;;;;;51.88;36.00;;;;;;;14.74;61.00;93428.16;5065748;28;20012;-44
2021/08/25 04:01:03;;;;;;;80.53;32.13;;;;;;;14.73;61.21;93428.72;5066132;28;20106;-43
2021/08/25 04:03:28;;;;;;;61.35;33.08;;;;;;;14.78;61.51;93431.25;5067513;28;20117;-45
2021/08/25 04:05:53;;;;;;;48.22;27.05;;;;;;;14.85;61.45;93449.88;5067420;28;20032;-45
2021/08/25 04:08:19;;;;;;;43.20;27.30;;;;;;;14.82;61.38;93448.25;5067167;28;20031;-45
2021/08/25 04:10:44;;;;;;;30.58;24.30;;;;;;;14.73;61.15;93432.25;5067400;28;20039;-45
2021/08/25 04:13:10;;;;;;;97.15;36.10;;;;;;;14.78;61.74;93450.72;5070851;28;20028;-44
2021/08/25 04:15:35;;;;;;;50.03;30.88;;;;;;;14.75;62.06;93437.97;5070922;28;20042;-45
2021/08/25 04:18:01;;;;;;;55.78;32.28;;;;;;;14.78;62.02;93433.28;5070773;28;20481;-44
2021/08/25 04:20:26;;;;;;;51.53;30.88;;;;;;;14.90;62.40;93440.53;5070397;28;20082;-44
2021/08/25 04:22:52;;;;;;;47.88;33.05;;;;;;;14.97;62.14;93436.91;5070585;28;20059;-45
2021/08/25 04:25:17;;;;;;;45.85;23.30;;;;;;;14.98;61.93;93427.28;5070550;28;20021;-46
2021/08/25 04:27:43;;;;;;;53.78;36.05;;;;;;;15.01;61.68;93422.56;5070840;28;20562;-44
2021/08/25 04:30:09;;;;;;;41.85;29.23;;;;;;;15.09;61.49;93420.44;5070574;28;20448;-47
2021/08/25 04:32:34;;;;;;;64.35;41.53;;;;;;;15.19;61.46;93421.94;5070724;28;20029;-44
2021/08/25 04:34:59;;;;;;;45.30;29.33;;;;;;;15.14;61.20;93424.97;5057101;28;20021;-45
2021/08/25 04:37:25;;;;;;;54.03;37.78;;;;;;;15.07;60.54;93426.56;5050349;28;20029;-44
2021/08/25 04:39:50;;;;;;;40.80;26.10;;;;;;;15.08;60.64;93419.69;5050256;28;20048;-44
2021/08/25 04:42:16;;;;;;;28.52;23.20;;;;;;;15.12;60.63;93422.78;5050493;28;20017;-44
2021/08/25 04:44:41;;;;;;;44.72;27.75;;;;;;;15.17;60.95;93421.06;5050554;28;20044;-45
2021/08/25 04:47:07;;;;;;;43.53;28.67;;;;;;;15.27;61.15;93418.31;5052831;28;20112;-45
2021/08/25 04:49:32;;;;;;;35.35;24.92;;;;;;;15.27;60.75;93412.75;5063298;28;20025;-45
2021/08/25 04:51:58;;;;;;;54.88;29.65;;;;;;;15.39;60.87;93396.97;5052234;28;20017;-44
2021/08/25 04:54:23;;;;;;;39.60;27.23;;;;;;;15.47;61.03;93383.69;5052284;28;20045;-45
2021/08/25 04:56:48;;;;;;;29.95;24.02;;;;;;;15.56;61.56;93372.59;5052274;28;20029;-47
2021/08/25 04:59:14;;;;;;;34.25;25.85;;;;;;;15.67;61.77;93365.72;5052511;28;20025;-46
2021/08/25 05:01:39;;;;;;;43.85;30.60;;;;;;;15.73;61.26;93361.31;5052104;28;20029;-47
2021/08/25 05:04:05;;;;;;;72.22;37.70;;;;;;;15.64;61.39;93352.94;5052042;28;20121;-47
2021/08/25 05:06:30;;;;;;;177.80;65.32;;;;;;;15.64;61.91;93353.69;5058906;28;20016;-47
2021/08/25 05:08:56;;;;;;;272.73;100.72;;;;;;;15.67;62.14;93346.97;5072136;28;20414;-47
2021/08/25 05:11:21;;;;;;;375.13;136.32;;;;;;;15.86;61.95;93346.22;5071987;28;20052;-44
2021/08/25 05:13:46;;;;;;;165.40;68.25;;;;;;;15.99;61.36;93347.84;5071947;28;20017;-44
2021/08/25 05:16:12;;;;;;;274.58;80.78;;;;;;;16.14;60.86;93350.31;5071834;28;20024;-45
2021/08/25 05:18:39;;;;;;;184.75;65.72;;;;;;;16.29;60.34;93350.00;5071699;28;20023;-44
2021/08/25 05:21:05;;;;;;;41.88;29.55;;;;;;;16.14;60.54;93331.56;5071828;28;20082;-46
2021/08/25 05:23:30;;;;;;;48.80;26.90;;;;;;;16.37;60.49;93342.97;5071602;28;20033;-45
2021/08/25 05:25:56;;;;;;;58.60;34.60;;;;;;;16.43;60.40;93351.03;5071697;28;20527;-48
2021/08/25 05:28:21;;;;;;;51.17;27.05;;;;;;;16.48;60.71;93353.50;5071619;28;20017;-47
2021/08/25 05:30:47;;;;;;;39.53;28.25;;;;;;;16.60;60.24;93345.28;5071908;28;20021;-46
2021/08/25 05:33:12;;;;;;;78.32;27.42;;;;;;;16.70;59.96;93332.06;5067918;28;20047;-46
2021/08/25 05:35:38;;;;;;;50.67;27.90;;;;;;;16.82;60.55;93329.38;5070104;28;20040;-45
2021/08/25 05:38:03;;;;;;;153.55;42.17;;;;;;;16.95;60.17;93314.94;5057790;28;20032;-46
2021/08/25 05:40:29;;;;;;;49.85;33.90;;;;;;;17.10;60.30;93311.78;5051178;28;20037;-46
2021/08/25 05:42:54;;;;;;;50.70;31.08;;;;;;;17.19;59.47;93311.00;5051780;28;20121;-44
2021/08/25 05:45:20;;;;;;;45.70;30.50;;;;;;;17.23;59.04;93323.19;5051716;28;20536;-45
2021/08/25 05:47:45;;;;;;;42.28;30.70;;;;;;;17.25;59.51;93319.78;5051285;28;20017;-46
2021/08/25 05:50:11;;;;;;;54.72;33.45;;;;;;;17.34;59.13;93332.97;5051524;28;20029;-46
2021/08/25 05:52:36;;;;;;;108.53;35.55;;;;;;;17.36;58.94;93339.41;5051202;28;20606;-46
2021/08/25 05:55:03;;;;;;;42.88;29.42;;;;;;;17.28;59.75;93336.06;5051504;28;20021;-46
2021/08/25 05:57:29;;;;;;;61.67;33.45;;;;;;;17.32;59.92;93343.97;5051399;28;20045;-47
2021/08/25 05:59:56;;;;;;;92.28;35.42;;;;;;;17.38;60.31;93347.91;5051326;28;20028;-45
2021/08/25 06:02:21;;;;;;;42.80;27.90;;;;;;;17.51;59.83;93348.75;5051346;28;20048;-45
2021/08/25 06:04:47;;;;;;;40.30;25.75;;;;;;;17.49;59.47;93332.56;5051305;28;20406;-46
2021/08/25 06:07:12;;;;;;;42.72;29.33;;;;;;;17.71;59.37;93353.63;5050960;28;20408;-45
2021/08/25 06:09:38;;;;;;;43.28;26.95;;;;;;;17.77;59.23;93362.41;5051149;28;20032;-45
2021/08/25 06:12:04;;;;;;;36.17;27.65;;;;;;;18.02;58.92;93357.06;5051073;28;20108;-44
2021/08/25 06:14:30;;;;;;;41.53;24.95;;;;;;;18.26;58.82;93348.78;5051082;28;20024;-46
2021/08/25 06:16:55;;;;;;;58.40;31.98;;;;;;;18.45;57.90;93343.03;5050843;28;20513;-46
2021/08/25 06:19:21;;;;;;;61.15;38.92;;;;;;;18.57;56.71;93343.78;5051020;28;20068;-44
2021/08/25 06:21:47;;;;;;;51.83;33.33;;;;;;;18.65;56.65;93353.44;5050934;28;20025;-44
2021/08/25 06:24:13;;;;;;;45.30;28.70;;;;;;;18.79;56.77;93356.38;5050658;28;20040;-44
2021/08/25 06:26:40;;;;;;;45.00;34.05;;;;;;;18.94;56.29;93361.50;5053567;28;20013;-45
2021/08/25 06:29:05;;;;;;;102.55;40.63;;;;;;;19.10;55.50;93370.88;5070093;28;20418;-44
2021/08/25 06:31:31;;;;;;;70.88;29.10;;;;;;;19.30;55.30;93366.53;5050736;28;20029;-46
2021/08/25 06:33:56;;;;;;;57.20;32.72;;;;;;;19.44;53.34;93361.09;5054620;28;20108;-47
2021/08/25 06:36:22;;;;;;;63.38;37.50;;;;;;;19.58;52.93;93357.03;5070596;28;20522;-45
2021/08/25 06:38:48;;;;;;;57.08;35.25;;;;;;;19.74;52.88;93362.88;5069672;28;20170;-45
2021/08/25 06:41:13;;;;;;;41.72;29.95;;;;;;;19.92;51.96;93360.41;5070070;28;20036;-45
2021/08/25 06:43:39;;;;;;;102.25;42.05;;;;;;;20.14;52.37;93358.91;5070471;28;20119;-44
2021/08/25 06:46:04;;;;;;;78.05;47.15;;;;;;;20.32;51.93;93363.47;5070202;28;20032;-45
2021/08/25 06:48:30;;;;;;;111.30;48.05;;;;;;;20.56;50.98;93371.78;5070307;28;20036;-45
2021/08/25 06:50:56;;;;;;;83.85;52.65;;;;;;;20.91;50.67;93367.47;5070492;28;20028;-46
2021/08/25 06:53:22;;;;;;;90.70;68.88;;;;;;;21.12;50.22;93358.06;5068800;28;20136;-44
2021/08/25 06:55:47;;;;;;;116.20;97.43;;;;;;;21.35;49.05;93352.31;5069979;28;20639;-46
2021/08/25 06:58:13;;;;;;;390.92;312.25;;;;;;;21.89;47.77;93343.19;5069872;28;20129;-47
2021/08/25 07:00:39;;;;;;;1264.22;858.88;;;;;;;21.90;44.47;93339.00;5070244;28;20029;-45
2021/08/25 07:03:04;;;;;;;679.00;548.70;;;;;;;21.99;46.19;93331.69;5070278;28;20020;-45
2021/08/25 07:05:29;;;;;;;1438.60;909.20;;;;;;;22.21;44.22;93332.81;5070103;28;20474;-45
2021/08/25 07:07:57;;;;;;;1982.93;999.90;;;;;;;22.41;43.35;93328.16;5070119;28;20043;-45
2021/08/25 12:01:28;;;;;;;943.33;865.95;;;;;;;29.81;32.09;93159.28;5060253;28;20688;-46
2021/08/25 12:03:54;;;;;;;930.40;855.83;;;;;;;30.06;31.68;93188.91;5052089;28;20748;-46
2021/08/25 12:06:20;;;;;;;954.72;878.03;;;;;;;30.08;32.46;93192.50;5053880;28;20489;-46
2021/08/25 12:08:48;;;;;;;972.25;892.92;;;;;;;29.59;33.02;93188.00;5053201;28;20450;-45
2021/08/25 12:11:14;;;;;;;;;;;;;;;29.38;33.77;93179.75;5054697;27;20484;-46
2021/08/25 12:13:44;;;;;;;975.75;888.75;;;;;;;29.27;34.34;93187.38;5052877;28;20011;-45
2021/08/25 12:16:23;;;;;;;964.65;871.25;;;;;;;28.97;35.35;93186.72;5056669;28;20017;-47
2021/08/25 12:18:52;;;;;;;964.53;871.53;;;;;;;29.18;34.94;93199.97;5052651;28;20064;-48
2021/08/25 12:21:19;;;;;;;980.47;885.92;;;;;;;29.62;34.61;93209.41;5060057;28;20028;-45
2021/08/25 12:24:09;;;;;;;974.38;883.72;;;;;;;30.05;33.75;93210.94;5049459;28;20025;-45
2021/08/25 12:26:37;;;;;;;967.67;880.70;;;;;;;29.81;33.90;93211.22;5048688;27;20100;-47
2021/08/25 12:29:04;;;;;;;967.43;875.27;;;;;;;29.63;34.74;93216.53;5043873;27;20013;-46
2021/08/25 12:31:31;;;;;;;945.40;850.45;;;;;;;29.68;35.14;93217.34;5056854;28;20039;-45
2021/08/25 12:34:14;;;;;;;955.55;857.53;;;;;;;29.68;34.99;93220.19;5062288;28;20516;-45
2021/08/25 12:36:52;;;;;;;964.10;864.80;;;;;;;29.51;35.08;93219.16;5049550;28;20056;-47
2021/08/25 12:39:22;;;;;;;943.60;847.15;;;;;;;29.46;35.36;93219.75;5053848;27;20505;-47
2021/08/25 12:41:49;;;;;;;973.10;871.67;;;;;;;29.48;35.71;93211.25;5058533;28;20421;-47
2021/08/25 12:44:16;;;;;;;963.85;862.78;;;;;;;29.45;35.47;93216.19;5060812;28;20017;-46
2021/08/25 12:46:55;;;;;;;985.88;881.40;;;;;;;29.51;35.62;93212.75;5061157;28;20664;-46
2021/08/25 12:49:22;;;;;;;955.33;853.58;;;;;;;29.48;35.61;93209.13;5060856;28;20033;-47
2021/08/25 12:51:49;;;;;;;976.55;873.67;;;;;;;29.43;35.24;93201.22;5061386;28;20071;-46
2021/08/25 12:54:16;;;;;;;976.70;870.92;;;;;;;29.43;35.73;93184.88;5061389;28;20032;-44
2021/08/25 12:56:41;;;;;;;950.85;854.38;;;;;;;29.69;34.52;93178.94;5060686;28;20516;-46
2021/08/25 12:59:07;;;;;;;922.53;834.88;;;;;;;29.81;33.58;93171.38;5060133;28;20016;-45
2021/08/25 13:01:32;;;;;;;926.70;837.70;;;;;;;30.02;34.61;93177.44;5052506;28;20049;-45
2021/08/25 13:03:58;;;;;;;937.35;844.20;;;;;;;30.10;34.35;93166.91;5047256;28;20630;-46
2021/08/25 13:06:23;;;;;;;907.92;815.58;;;;;;;30.17;34.56;93176.28;5047428;28;20052;-46
2021/08/25 13:08:49;;;;;;;948.88;863.78;;;;;;;30.22;33.21;93167.09;5047091;28;20747;-47
2021/08/25 13:11:16;;;;;;;947.28;865.13;;;;;;;30.25;32.88;93151.50;5044064;28;20021;-47
2021/08/25 13:13:42;;;;;;;931.88;854.00;;;;;;;30.28;32.38;93147.25;5035698;28;20021;-47
2021/08/25 13:16:07;;;;;;;954.50;875.33;;;;;;;30.16;32.71;93143.50;5036948;28;20047;-46
2021/08/25 13:18:33;;;;;;;926.88;845.78;;;;;;;30.21;33.05;93150.69;5034854;28;20558;-47
2021/08/25 13:20:59;;;;;;;974.58;893.75;;;;;;;30.20;32.29;93152.09;5036075;28;20025;-46
2021/08/25 13:23:25;;;;;;;938.42;857.60;;;;;;;30.13;32.78;93154.13;5036474;28;20050;-47
2021/08/25 13:25:52;;;;;;;975.50;893.10;;;;;;;30.25;33.59;93153.63;5034741;28;20066;-47
2021/08/25 13:28:20;;;;;;;965.28;887.90;;;;;;;30.17;32.69;93153.50;5036417;28;20337;-45
2021/08/25 13:30:46;;;;;;;975.97;897.10;;;;;;;30.12;33.25;93146.28;5036360;28;20026;-47
2021/08/25 13:33:11;;;;;;;924.47;846.90;;;;;;;30.05;32.98;93142.59;5034621;28;20038;-46
2021/08/25 13:35:36;;;;;;;946.78;873.47;;;;;;;29.99;32.69;93139.66;5036027;28;20029;-46
2021/08/25 13:38:02;;;;;;;1005.15;922.38;;;;;;;29.81;32.57;93125.84;5033642;28;20025;-48
2021/08/25 13:40:28;;;;;;;1057.70;969.17;;;;;;;29.67;33.01;93122.69;5036238;28;20595;-47
2021/08/25 13:42:53;;;;;;;935.08;851.40;;;;;;;29.39;33.86;93116.50;5033061;28;20074;-47
2021/08/25 13:45:19;;;;;;;918.05;836.85;;;;;;;29.33;33.37;93107.84;5035974;28;20460;-48
2021/08/25 13:47:44;;;;;;;927.63;845.20;;;;;;;29.10;33.73;93103.13;5036340;28;20074;-46
2021/08/25 13:50:10;;;;;;;913.50;831.22;;;;;;;29.06;33.89;93103.75;5033994;28;20101;-46
2021/08/25 13:52:36;;;;;;;916.08;835.17;;;;;;;29.06;33.95;93105.91;5035964;28;20102;-47
2021/08/25 13:55:03;;;;;;;968.20;878.42;;;;;;;28.88;33.85;93097.00;5037795;28;20029;-45
2021/08/25 13:57:28;;;;;;;968.42;876.75;;;;;;;28.64;34.98;93090.81;5036825;28;20085;-45
2021/08/25 13:59:54;;;;;;;993.75;894.03;;;;;;;27.90;35.88;93082.00;5047175;27;20068;-45
2021/08/25 14:02:19;;;;;;;1024.30;922.63;;;;;;;27.86;35.91;93115.94;5033446;28;20029;-45
2021/08/25 14:04:46;;;;;;;1072.65;959.28;;;;;;;27.50;37.52;93129.94;5037154;28;20556;-44
2021/08/25 14:07:12;;;;;;;1095.15;975.60;;;;;;;27.31;37.75;93125.13;5035974;28;20021;-45
2021/08/25 14:09:37;;;;;;;1093.82;970.60;;;;;;;27.35;37.20;93130.97;5034735;28;20013;-47
2021/08/25 16:56:40;;;;;;;1343.28;824.40;;;;;;;18.80;86.02;93162.75;5056457;27;1387429;-45
2021/08/25 16:59:06;;;;;;;1353.50;926.35;;;;;;;18.89;86.10;93156.31;5067232;28;20074;-46
2021/08/25 17:01:32;;;;;;;1465.93;999.90;;;;;;;19.16;85.74;93174.63;5072377;28;20059;-46
2021/08/25 17:03:58;;;;;;;1150.15;981.90;;;;;;;18.94;83.26;93190.84;5072216;28;20037;-45
2021/08/25 17:06:24;;;;;;;1310.10;999.38;;;;;;;18.88;84.59;93205.19;5074128;28;20017;-46
2021/08/25 17:08:50;;;;;;;1237.25;999.90;;;;;;;18.63;84.69;93215.53;5082090;28;20508;-46
2021/08/25 17:11:15;;;;;;;1660.63;999.90;;;;;;;18.61;86.44;93221.00;5084013;28;20048;-46
2021/08/25 17:13:41;;;;;;;1474.38;999.90;;;;;;;18.77;86.97;93217.16;5084056;28;20016;-45
2021/08/25 17:16:07;;;;;;;1360.13;999.90;;;;;;;18.68;85.24;93197.69;5045580;28;20029;-44
2021/08/25 17:18:32;;;;;;;1164.43;999.90;;;;;;;18.99;83.66;93231.72;5029688;28;20037;-44
2021/08/25 17:20:58;;;;;;;1191.97;999.90;;;;;;;19.06;83.42;93235.63;5028419;28;20108;-44
2021/08/25 17:23:24;;;;;;;1227.50;999.90;;;;;;;19.18;82.82;93248.25;5041671;28;20489;-45
2021/08/25 17:25:49;;;;;;;1221.88;999.90;;;;;;;19.32;82.73;93265.13;5055801;28;20038;-44
2021/08/25 17:28:19;;;;;;;1625.40;999.90;;;;;;;19.38;81.10;93273.94;5056955;28;20752;-44
2021/08/25 17:30:48;;;;;;;1999.90;999.90;;;;;;;19.34;79.81;93268.81;5056487;28;20448;-44
2021/08/25 17:33:14;;;;;;;;;;;;;;;19.33;80.71;93264.53;5056618;28;20062;-45
2021/08/25 17:35:44;;;;;;;1657.90;949.17;;;;;;;19.27;79.88;93266.25;5056556;28;20601;-45
2021/08/25 17:38:10;;;;;;;1963.47;981.30;;;;;;;19.20;79.63;93262.34;5053524;28;20036;-46
2021/08/25 17:40:36;;;;;;;1790.38;908.70;;;;;;;19.18;79.09;93256.66;5055707;28;20033;-45
2021/08/25 17:43:03;;;;;;;1707.70;859.45;;;;;;;19.12;79.18;93245.09;5058118;28;20051;-46
2021/08/25 17:45:28;;;;;;;1762.20;881.88;;;;;;;19.16;80.22;93236.19;5052247;28;20044;-45
2021/08/25 17:47:54;;;;;;;1786.85;929.10;;;;;;;19.19;81.89;93241.28;5056114;28;20059;-46
2021/08/25 17:50:19;;;;;;;1540.85;990.22;;;;;;;19.29;82.44;93266.38;5056818;28;20029;-47
2021/08/25 17:52:45;;;;;;;1563.88;998.03;;;;;;;19.35;82.29;93289.13;5054724;28;20360;-45
2021/08/25 17:55:10;;;;;;;1727.78;999.90;;;;;;;19.38;81.29;93302.63;5057835;28;20104;-45
2021/08/25 17:57:37;;;;;;;1850.53;999.90;;;;;;;19.40;80.75;93330.78;5061918;28;20052;-47
2021/08/25 18:00:08;;;;;;;1950.78;999.90;;;;;;;19.32;79.93;93335.13;5074727;28;20028;-46
2021/08/25 18:02:34;;;;;;;1722.80;984.33;;;;;;;19.31;80.55;93334.41;5070864;28;20035;-45
2021/08/25 18:05:01;;;;;;;1945.60;991.20;;;;;;;19.25;79.90;93350.81;5077585;28;20029;-47
2021/08/25 18:07:27;;;;;;;1818.57;905.13;;;;;;;19.23;79.65;93350.69;5073748;28;20039;-48
2021/08/25 18:09:52;;;;;;;1782.82;917.67;;;;;;;19.25;80.34;93364.09;5075892;28;20463;-46
2021/08/25 18:12:18;;;;;;;1861.00;941.90;;;;;;;19.25;80.41;93353.63;5078281;28;20028;-47
2021/08/25 18:14:45;;;;;;;1867.18;887.22;;;;;;;19.24;79.81;93349.38;5077353;28;20058;-46
2021/08/25 18:17:11;;;;;;;1767.15;843.78;;;;;;;19.13;79.38;93350.09;5077312;28;20582;-45
2021/08/25 18:19:37;;;;;;;1999.90;990.92;;;;;;;19.01;80.28;93326.97;5071760;28;20040;-46
2021/08/25 18:22:08;;;;;;;1580.45;960.13;;;;;;;19.16;82.17;93376.13;5075702;28;20038;-46
2021/08/25 18:24:34;;;;;;;1732.13;999.90;;;;;;;18.97;82.28;93388.28;5075478;28;20027;-45
2021/08/25 18:27:00;;;;;;;1922.07;999.90;;;;;;;19.01;81.66;93393.41;5077718;28;20389;-46
2021/08/25 18:29:26;;;;;;;1903.05;977.05;;;;;;;19.05;80.18;93385.25;5076361;28;20028;-46
2021/08/25 18:31:53;;;;;;;1777.40;884.90;;;;;;;18.98;80.02;93383.41;5078710;28;20030;-45
2021/08/25 18:34:20;;;;;;;1715.50;871.15;;;;;;;18.97;79.88;93384.75;5078749;28;20031;-46
2021/08/25 18:36:46;;;;;;;1763.65;873.03;;;;;;;18.93;79.88;93388.75;5058894;28;20028;-45
2021/08/25 18:39:11;;;;;;;1742.82;935.85;;;;;;;18.79;81.11;93356.38;5078690;28;20030;-47
2021/08/25 18:41:37;;;;;;;1484.70;956.28;;;;;;;18.70;83.66;93349.56;5078035;28;20040;-46